Map

Track Data

SID SEASON NUMBER BASIN SUBBASIN NAME ISO_TIME NATURE LAT LON WMO_WIND WMO_PRES WMO_AGENCY TRACK_TYPE DIST2LAND LANDFALL IFLAG USA_AGENCY USA_ATCF_ID USA_LAT USA_LON USA_RECORD USA_STATUS USA_WIND USA_PRES USA_SSHS USA_R34_NE USA_R34_SE USA_R34_SW USA_R34_NW USA_R50_NE USA_R50_SE USA_R50_SW USA_R50_NW USA_R64_NE USA_R64_SE USA_R64_SW USA_R64_NW USA_POCI USA_ROCI USA_RMW USA_EYE TOKYO_LAT TOKYO_LON TOKYO_GRADE TOKYO_WIND TOKYO_PRES TOKYO_R50_DIR TOKYO_R50_LONG TOKYO_R50_SHORT TOKYO_R30_DIR TOKYO_R30_LONG TOKYO_R30_SHORT TOKYO_LAND CMA_LAT CMA_LON CMA_CAT CMA_WIND CMA_PRES HKO_LAT HKO_LON HKO_CAT HKO_WIND HKO_PRES NEWDELHI_LAT NEWDELHI_LON NEWDELHI_GRADE NEWDELHI_WIND NEWDELHI_PRES NEWDELHI_CI NEWDELHI_DP NEWDELHI_POCI REUNION_LAT REUNION_LON REUNION_TYPE REUNION_WIND REUNION_PRES REUNION_TNUM REUNION_CI REUNION_RMW REUNION_R34_NE REUNION_R34_SE REUNION_R34_SW REUNION_R34_NW REUNION_R50_NE REUNION_R50_SE REUNION_R50_SW REUNION_R50_NW REUNION_R64_NE REUNION_R64_SE REUNION_R64_SW REUNION_R64_NW BOM_LAT BOM_LON BOM_TYPE BOM_WIND BOM_PRES BOM_TNUM BOM_CI BOM_RMW BOM_R34_NE BOM_R34_SE BOM_R34_SW BOM_R34_NW BOM_R50_NE BOM_R50_SE BOM_R50_SW BOM_R50_NW BOM_R64_NE BOM_R64_SE BOM_R64_SW BOM_R64_NW BOM_ROCI BOM_POCI BOM_EYE BOM_POS_METHOD BOM_PRES_METHOD NADI_LAT NADI_LON NADI_CAT NADI_WIND NADI_PRES WELLINGTON_LAT WELLINGTON_LON WELLINGTON_WIND WELLINGTON_PRES DS824_LAT DS824_LON DS824_STAGE DS824_WIND DS824_PRES TD9636_LAT TD9636_LON TD9636_STAGE TD9636_WIND TD9636_PRES TD9635_LAT TD9635_LON TD9635_WIND TD9635_PRES TD9635_ROCI NEUMANN_LAT NEUMANN_LON NEUMANN_CLASS NEUMANN_WIND NEUMANN_PRES MLC_LAT MLC_LON MLC_CLASS MLC_WIND MLC_PRES USA_GUST BOM_GUST BOM_GUST_PER REUNION_GUST REUNION_GUST_PER USA_SEAHGT USA_SEARAD_NE USA_SEARAD_SE USA_SEARAD_SW USA_SEARAD_NW STORM_SPEED STORM_DIR
1965340N05092 1965 120 NI BB NOT_NAMED 1965-12-05 18:00:00 TS 4.80000 91.8000 main 381 381 O________O____ jtwc_io IO121965 4.80000 91.8000 -1 4.80000 91.8000 TC 1 332
1965340N05092 1965 120 NI BB NOT_NAMED 1965-12-05 21:00:00 TS 4.83499 91.7875 main 381 379 P________P____ IO121965 4.83499 91.7875 -1 4.83499 91.7875 TC 1 317
1965340N05092 1965 120 NI BB NOT_NAMED 1965-12-06 00:00:00 TS 4.90000 91.7000 main 390 390 O________O____ jtwc_io IO121965 4.90000 91.7000 -1 4.90000 91.7000 TC 25 4 302
1965340N05092 1965 120 NI BB NOT_NAMED 1965-12-06 03:00:00 TS 5.01778 91.4889 main 411 411 P________PO___ IO121965 5.02001 91.4875 -1 5.02001 91.4875 TC 25 5.00000 91.5000 1 6 301
1965340N05092 1965 120 NI BB NOT_NAMED 1965-12-06 06:00:00 TS 5.20440 91.1988 main 443 443 O________OP___ jtwc_io IO121965 5.20000 91.2000 -1 5.20000 91.2000 TC 25 5.22198 91.1938 1 7 305
1965340N05092 1965 120 NI BB NOT_NAMED 1965-12-06 09:00:00 TS 5.42957 90.9027 main 476 476 P________PP___ IO121965 5.42000 90.9075 -1 5.42000 90.9075 TC 25 5.45510 90.8900 1 8 310
1965340N05092 1965 120 NI BB NOT_NAMED 1965-12-06 12:00:00 TS 5.70356 90.5971 main 509 509 O________OP___ jtwc_io IO121965 5.70000 90.6000 -1 5.70000 90.6000 TC 25 5.71067 90.5912 1 9 314
1965340N05092 1965 120 NI BB NOT_NAMED 1965-12-06 15:00:00 TS 6.02334 90.2900 main 544 544 P________PO___ IO121965 6.03501 90.2850 -1 6.03501 90.2850 TC 25 6.00000 90.3000 1 9 319
1965340N05092 1965 120 NI BB NOT_NAMED 1965-12-06 18:00:00 TS 6.37698 90.0070 main 582 582 O________OP___ jtwc_io IO121965 6.40000 90.0000 -1 6.40000 90.0000 TC 25 6.33095 90.0211 1 9 324
1965340N05092 1965 120 NI BB NOT_NAMED 1965-12-06 21:00:00 TS 6.72750 89.7742 main 610 610 P________PP___ IO121965 6.74248 89.7775 -1 6.74248 89.7775 TC 25 6.69753 89.7677 1 8 330
1965340N05092 1965 120 NI BB NOT_NAMED 1965-12-07 00:00:00 TS 7.09678 89.5852 main 641 641 O________OP___ jtwc_io IO121965 7.10000 89.6000 -1 7.10000 89.6000 TC 25 7.09035 89.5555 1 8 335
1965340N05092 1965 120 NI BB NOT_NAMED 1965-12-07 03:00:00 TS 7.49000 89.4134 main 675 675 P________PO___ IO121965 7.48500 89.4200 -1 7.48500 89.4200 TC 25 7.50000 89.4000 1 9 341
1965340N05092 1965 120 NI BB NOT_NAMED 1965-12-07 06:00:00 TS 7.90487 89.3111 main 701 701 O________OP___ jtwc_io IO121965 7.90000 89.3000 -1 7.90000 89.3000 TC 25 7.91460 89.3334 1 9 352
1965340N05092 1965 120 NI BB NOT_NAMED 1965-12-07 09:00:00 TS 8.34746 89.2964 main 718 718 P________PP___ IO121965 8.34999 89.2849 -1 8.34999 89.2849 TC 25 8.34239 89.3195 1 9 0
1965340N05092 1965 120 NI BB NOT_NAMED 1965-12-07 12:00:00 TS 8.79133 89.3070 main 743 743 O________OP___ jtwc_io IO121965 8.80000 89.3000 -1 8.80000 89.3000 TC 25 8.77400 89.3209 1 9 0
1965340N05092 1965 120 NI BB NOT_NAMED 1965-12-07 15:00:00 TS 9.19999 89.2816 main 765 765 P________PO___ IO121965 9.19999 89.2724 -1 9.19999 89.2724 TC 30 9.20000 89.3000 1 8 352
1965340N05092 1965 120 NI BB NOT_NAMED 1965-12-07 18:00:00 TS 9.61053 89.1959 main 799 799 O________OP___ jtwc_io IO121965 9.60000 89.2000 -1 9.60000 89.2000 TC 35 9.63159 89.1878 1 9 345
1965340N05092 1965 120 NI BB NOT_NAMED 1965-12-07 21:00:00 TS 10.0659 89.0502 main 840 839 P________PP___ IO121965 10.0725 89.0501 -1 10.0725 89.0501 TC 35 10.0525 89.0504 1 9 342
1965340N05092 1965 120 NI BB NOT_NAMED 1965-12-08 00:00:00 TS 10.4824 88.9043 main 840 824 O________OP___ jtwc_io IO121965 10.5000 88.9000 -1 10.5000 88.9000 TC 35 10.4472 88.9128 1 8 343
1965340N05092 1965 120 NI BB NOT_NAMED 1965-12-08 03:00:00 TS 10.7867 88.8233 main 824 808 P________PO___ IO121965 10.7800 88.8349 -1 10.7800 88.8349 TC 35 10.8000 88.8000 2 6 348
1965340N05092 1965 120 NI BB NOT_NAMED 1965-12-08 06:00:00 TS 11.0310 88.7834 main 808 793 O________OP___ jtwc_io IO121965 11.0000 88.8000 -1 11.0000 88.8000 TC 35 11.0931 88.7501 2 5 350
1965340N05092 1965 120 NI BB NOT_NAMED 1965-12-08 09:00:00 TS 11.2816 88.7424 main 793 779 P________PP___ IO121965 11.2500 88.7500 -1 11.2500 88.7500 TC 35 11.3449 88.7272 2 5 351
1965340N05092 1965 120 NI BB NOT_NAMED 1965-12-08 12:00:00 TS 11.5248 88.7052 main 779 757 O________OP___ jtwc_io IO121965 11.5000 88.7000 -1 11.5000 88.7000 TC 35 11.5743 88.7158 2 5 351
1965340N05092 1965 120 NI BB NOT_NAMED 1965-12-08 15:00:00 TS 11.7667 88.6667 main 757 750 P________PO___ IO121965 11.7500 88.6500 -1 11.7500 88.6500 TC 35 11.8000 88.7000 3 5 350
1965340N05092 1965 120 NI BB NOT_NAMED 1965-12-08 18:00:00 TS 12.0248 88.6177 main 752 732 O________OP___ jtwc_io IO121965 12.0000 88.6000 -1 12.0000 88.6000 TC 35 12.0744 88.6532 3 5 349
1965340N05092 1965 120 NI BB NOT_NAMED 1965-12-08 21:00:00 TS 12.2817 88.5617 main 732 728 P________PP___ IO121965 12.2500 88.5425 -1 12.2500 88.5425 TC 35 12.3450 88.6001 3 5 349
1965340N05092 1965 120 NI BB NOT_NAMED 1965-12-09 00:00:00 TS 12.5310 88.5156 main 728 710 O________OP___ jtwc_io IO121965 12.5000 88.5000 -1 12.5000 88.5000 TC 35 12.5931 88.5469 3 5 354
1965340N05092 1965 120 NI BB NOT_NAMED 1965-12-09 03:00:00 TS 12.7867 88.5000 main 710 699 P________PO___ IO121965 12.7800 88.5000 -1 12.7800 88.5000 TC 35 12.8000 88.5000 3 5 0
1965340N05092 1965 120 NI BB NOT_NAMED 1965-12-09 06:00:00 TS 12.9824 88.4893 main 699 694 O________OP___ jtwc_io IO121965 13.0000 88.5000 -1 13.0000 88.5000 TC 35 12.9472 88.4678 3 3 348
1965340N05092 1965 120 NI BB NOT_NAMED 1965-12-09 09:00:00 TS 13.0658 88.4475 main 703 703 P________PP___ IO121965 13.0725 88.4500 -1 13.0725 88.4500 TC 35 13.0525 88.4424 3 2 330
1965340N05092 1965 120 NI BB NOT_NAMED 1965-12-09 12:00:00 TS 13.1105 88.4070 main 703 698 O________OP___ jtwc_io IO121965 13.1000 88.4000 -1 13.1000 88.4000 TC 35 13.1316 88.4209 3 1 340
1965340N05092 1965 120 NI BB NOT_NAMED 1965-12-09 15:00:00 TS 13.1950 88.4000 main 698 693 P________PO___ IO121965 13.1925 88.4000 -1 13.1925 88.4000 TC 35 13.2000 88.4000 3 2 0
1965340N05092 1965 120 NI BB NOT_NAMED 1965-12-09 18:00:00 TS 13.2981 88.3903 main 693 688 O________OP___ jtwc_io IO121965 13.3000 88.4000 -1 13.3000 88.4000 TC 35 13.2944 88.3709 3 2 344
1965340N05092 1965 120 NI BB NOT_NAMED 1965-12-09 21:00:00 TS 13.4033 88.3475 main 698 693 P________PP___ IO121965 13.4150 88.3500 -1 13.4150 88.3500 TC 35 13.3800 88.3425 3 2 337
1965340N05092 1965 120 NI BB NOT_NAMED 1965-12-10 00:00:00 TS 13.4835 88.3059 main 693 693 O________OP___ jtwc_io IO121965 13.5000 88.3000 -1 13.5000 88.3000 TC 35 13.4506 88.3178 3 1 334
1965340N05092 1965 120 NI BB NOT_NAMED 1965-12-10 03:00:00 TS 13.5100 88.2950 main 693 693 P________PO___ IO121965 13.5150 88.2925 -1 13.5150 88.2925 TC 35 13.5000 88.3000 3 0 0
1965340N05092 1965 120 NI BB NOT_NAMED 1965-12-10 06:00:00 TS 13.5072 88.2976 main 693 693 O________OP___ jtwc_io IO121965 13.5000 88.3000 -1 13.5000 88.3000 TC 35 13.5216 88.2928 3 0 0
1965340N05092 1965 120 NI BB NOT_NAMED 1965-12-10 09:00:00 TS 13.5075 88.2975 main 693 693 P________PP___ IO121965 13.5000 88.3000 -1 13.5000 88.3000 TC 35 13.5225 88.2925 3 0 0
1965340N05092 1965 120 NI BB NOT_NAMED 1965-12-10 12:00:00 TS 13.5041 88.2986 main 693 693 O________OP___ jtwc_io IO121965 13.5000 88.3000 -1 13.5000 88.3000 TC 35 13.5122 88.2959 3 0 0
1965340N05092 1965 120 NI BB NOT_NAMED 1965-12-10 15:00:00 TS 13.5000 88.3000 main 693 693 P________PO___ IO121965 13.5000 88.3000 -1 13.5000 88.3000 TC 35 13.5000 88.3000 3 0 0
1965340N05092 1965 120 NI BB NOT_NAMED 1965-12-10 18:00:00 TS 13.5000 88.3054 main 693 693 O________OP___ jtwc_io IO121965 13.5000 88.3000 -1 13.5000 88.3000 TC 35 13.5000 88.3163 3 0 0
1965340N05092 1965 120 NI BB NOT_NAMED 1965-12-10 21:00:00 TS 13.5000 88.3100 main 693 693 P________PP___ IO121965 13.5000 88.3000 -1 13.5000 88.3000 TC 35 13.5000 88.3300 3 0 0
1965340N05092 1965 120 NI BB NOT_NAMED 1965-12-11 00:00:00 TS 13.5000 88.3096 main 693 693 O________OP___ jtwc_io IO121965 13.5000 88.3000 -1 13.5000 88.3000 TC 35 13.5000 88.3288 3 0 0
1965340N05092 1965 120 NI BB NOT_NAMED 1965-12-11 03:00:00 TS 13.5000 88.3150 main 693 693 P________PO___ IO121965 13.5000 88.3225 -1 13.5000 88.3225 TC 35 13.5000 88.3000 3 0 272
1965340N05092 1965 120 NI BB NOT_NAMED 1965-12-11 06:00:00 TS 13.5014 88.2776 main 693 693 O________OP___ jtwc_io IO121965 13.5000 88.3000 -1 13.5000 88.3000 TC 35 13.5041 88.2328 3 2 271
1965340N05092 1965 120 NI BB NOT_NAMED 1965-12-11 09:00:00 TS 13.5025 88.1558 main 693 680 P________PP___ IO121965 13.5000 88.1650 -1 13.5000 88.1650 TC 35 13.5075 88.1375 3 3 270
1965340N05092 1965 120 NI BB NOT_NAMED 1965-12-11 12:00:00 TS 13.5024 88.0078 main 680 673 O________OP___ jtwc_io IO121965 13.5000 88.0000 -1 13.5000 88.0000 TC 35 13.5072 88.0235 3 2 272
1965340N05092 1965 120 NI BB NOT_NAMED 1965-12-11 15:00:00 TS 13.5100 87.9000 main 673 667 P________PO___ IO121965 13.5150 87.9000 -1 13.5150 87.9000 TC 35 13.5000 87.9000 3 2 265
1965340N05092 1965 120 NI BB NOT_NAMED 1965-12-11 18:00:00 TS 13.4859 87.7967 main 667 660 O________OP___ jtwc_io IO121965 13.5000 87.8000 -1 13.5000 87.8000 TC 35 13.4578 87.7902 3 3 243
1965340N05092 1965 120 NI BB NOT_NAMED 1965-12-11 21:00:00 TS 13.3941 87.6624 main 670 664 P________PP___ IO121965 13.3850 87.6574 -1 13.3850 87.6574 TC 35 13.4124 87.6723 3 3 240
1965340N05092 1965 120 NI BB NOT_NAMED 1965-12-12 00:00:00 TS 13.3286 87.5144 main 666 650 O________OP___ jtwc_io IO121965 13.3000 87.5000 -1 13.3000 87.5000 TC 35 13.3859 87.5433 3 3 266
1965340N05092 1965 120 NI BB NOT_NAMED 1965-12-12 03:00:00 TS 13.3750 87.3667 main 650 627 P________PO___ IO121965 13.3625 87.3500 -1 13.3625 87.3500 TC 35 13.4000 87.4000 3 3 299
1965340N05092 1965 120 NI BB NOT_NAMED 1965-12-12 06:00:00 TS 13.4940 87.2091 main 627 612 O________OP___ jtwc_io IO121965 13.5000 87.2000 -1 13.5000 87.2000 TC 35 13.4819 87.2273 3 4 310
1965340N05092 1965 120 NI BB NOT_NAMED 1965-12-12 09:00:00 TS 13.6350 87.0476 main 605 581 P________PP___ IO121965 13.6500 87.0500 -1 13.6500 87.0500 TC 35 13.6051 87.0427 3 4 313
1965340N05092 1965 120 NI BB NOT_NAMED 1965-12-12 12:00:00 TS 13.7836 86.8872 main 581 558 O________OP___ jtwc_io IO121965 13.8000 86.9000 -1 13.8000 86.9000 TC 35 13.7507 86.8617 3 4 311
1965340N05092 1965 120 NI BB NOT_NAMED 1965-12-12 15:00:00 TS 13.9000 86.7283 main 558 542 P________PO___ IO121965 13.9000 86.7425 -1 13.9000 86.7425 TC 35 13.9000 86.7000 3 4 304
1965340N05092 1965 120 NI BB NOT_NAMED 1965-12-12 18:00:00 TS 13.9853 86.5807 main 542 527 O________OP___ jtwc_io IO121965 14.0000 86.6000 -1 14.0000 86.6000 TC 35 13.9559 86.5420 3 3 307
1965340N05092 1965 120 NI BB NOT_NAMED 1965-12-12 21:00:00 TS 14.0975 86.4601 main 527 511 P________PP___ IO121965 14.1350 86.4850 -1 14.1350 86.4850 TC 50 14.0225 86.4104 3 3 323
1965340N05092 1965 120 NI BB NOT_NAMED 1965-12-13 00:00:00 TS 14.2509 86.3745 main 503 487 O________OP___ jtwc_io IO121965 14.3000 86.4000 -1 14.3000 86.4000 TC 65 14.1528 86.3235 3 4 336
1965340N05092 1965 120 NI BB NOT_NAMED 1965-12-13 03:00:00 TS 14.4167 86.3134 main 487 463 P________PO___ IO121965 14.4250 86.3201 -1 14.4250 86.3201 TC 65 14.4000 86.3000 4 5 353
1965340N05092 1965 120 NI BB NOT_NAMED 1965-12-13 06:00:00 TS 14.7533 86.3053 main 455 415 O________OP___ jtwc_io IO121965 14.7000 86.3000 -1 14.7000 86.3000 TC 65 14.8601 86.3158 4 9 3
1965340N05092 1965 120 NI BB NOT_NAMED 1965-12-13 09:00:00 TS 15.3473 86.3651 main 415 362 P________PP___ IO121965 15.3050 86.3476 -1 15.3050 86.3476 TC 65 15.4321 86.4003 4 13 9
1965340N05092 1965 120 NI BB NOT_NAMED 1965-12-13 12:00:00 TS 16.0127 86.5199 main 362 338 O________OP___ jtwc_io IO121965 16.0000 86.5000 -1 16.0000 86.5000 TC 65 16.0381 86.5596 4 13 18
1965340N05092 1965 120 NI BB NOT_NAMED 1965-12-13 15:00:00 TS 16.5683 86.7699 main 338 330 P________PO___ IO121965 16.5525 86.7549 -1 16.5525 86.7549 TC 65 16.6000 86.8000 4 11 30
1965340N05092 1965 120 NI BB NOT_NAMED 1965-12-13 18:00:00 TS 16.9904 87.1032 main 332 319 O________OP___ jtwc_io IO121965 17.0000 87.1000 -1 17.0000 87.1000 TC 65 16.9711 87.1096 4 10 43
1965340N05092 1965 120 NI BB NOT_NAMED 1965-12-13 21:00:00 TS 17.3025 87.4792 main 323 306 P________PP___ IO121965 17.3074 87.4705 -1 17.3074 87.4705 TC 65 17.2926 87.4966 4 10 51
1965340N05092 1965 120 NI BB NOT_NAMED 1965-12-14 00:00:00 TS 17.6059 87.9117 main 311 301 O________OP___ jtwc_io IO121965 17.6000 87.9000 -1 17.6000 87.9000 TC 65 17.6178 87.9351 4 11 51
1965340N05092 1965 120 NI BB NOT_NAMED 1965-12-14 03:00:00 TS 17.9984 88.3951 main 307 298 P________PO___ IO121965 17.9976 88.3927 -1 17.9976 88.3927 TC 65 18.0000 88.4000 4 13 46
1965340N05092 1965 120 NI BB NOT_NAMED 1965-12-14 06:00:00 TS 18.5102 88.8830 main 306 280 O________OP___ jtwc_io IO121965 18.5000 88.9000 -1 18.5000 88.9000 TC 65 18.5305 88.8489 4 15 38
1965340N05092 1965 120 NI BB NOT_NAMED 1965-12-14 09:00:00 TS 19.1348 89.3399 main 280 221 P________PP___ IO121965 19.1423 89.3501 -1 19.1423 89.3501 TC 65 19.1198 89.3194 4 15 34
1965340N05092 1965 120 NI BB NOT_NAMED 1965-12-14 12:00:00 TS 19.7747 89.8018 main 214 167 O________OP___ jtwc_io IO121965 19.8000 89.8000 -1 19.8000 89.8000 TC 65 19.7242 89.8054 4 15 37
1965340N05092 1965 120 NI BB NOT_NAMED 1965-12-14 15:00:00 TS 20.3199 90.2952 main 168 123 P________PO___ IO121965 20.3299 90.2929 -1 20.3299 90.2929 TC 50 20.3000 90.3000 4 14 42
1965340N05092 1965 120 NI BB NOT_NAMED 1965-12-14 18:00:00 TS 20.8056 90.7989 main 127 70 O________OP___ jtwc_io IO121965 20.8000 90.8000 -1 20.8000 90.8000 TC 35 20.8139 90.7973 4 13 45
1965340N05092 1965 120 NI BB NOT_NAMED 1965-12-14 21:00:00 TS 21.2616 91.2995 main 66 15 P________PP___ IO121965 21.2528 91.3019 -1 21.2528 91.3019 TC 30 21.2734 91.2962 4 13 46
1965340N05092 1965 120 NI BB NOT_NAMED 1965-12-15 00:00:00 TS 21.6981 91.7985 main 15 0 O________OP___ jtwc_io IO121965 21.7000 91.8000 -1 21.7000 91.8000 TC 25 21.6963 91.7970 4 13 48
1965340N05092 1965 120 NI BB NOT_NAMED 1965-12-15 03:00:00 NR 22.1000 92.3000 main 0 __________O___ IO121965 -1 TC 22.1000 92.3000 1 12 49

About IBTrACS Database

This database is a web-friendly format of International Best Track Archive for Climate Stewardship (IBTrACS), a global best track data archive curated by NOAA dating back to 1842.

Updated: 2021-10-08